Time;durP1;ratioP1;P1;durP2;ratioP2;P2;SDS_P1;SDS_P2;PMS_P1;PMS_P2;Temp;Humidity;BMP_temperature;BMP_pressure;BME280_temperature;BME280_humidity;BME280_pressure;Samples;Min_cycle;Max_cycle;Signal;HPM_P1;HPM_P2
2022/11/02 00:00:40;;;;;;;;;;;16.10;99.90;;;;;;7376800;19;108103;-91
2022/11/02 00:03:07;;;;;;;;;;;16.10;99.90;;;;;;7377070;19;109059;-90
2022/11/02 00:05:35;;;;;;;;;;;16.10;99.90;;;;;;7377681;19;107903;-93
2022/11/02 00:08:02;;;;;;;;;;;16.10;99.90;;;;;;7382111;19;110344;-91
2022/11/02 00:10:29;;;;;;;;;;;16.10;99.90;;;;;;7374905;19;108840;-91
2022/11/02 00:12:56;;;;;;;;;;;16.10;99.90;;;;;;7377351;19;107923;-93
2022/11/02 00:15:25;;;;;;;;;;;16.10;99.90;;;;;;7373120;19;109108;-90
2022/11/02 00:17:53;;;;;;;;;;;16.10;99.90;;;;;;7378411;19;108005;-92
2022/11/02 00:20:20;;;;;;;;;;;16.10;99.90;;;;;;7378389;19;109751;-94
2022/11/02 00:22:49;;;;;;;;;;;16.00;99.90;;;;;;7378102;19;111796;-89
2022/11/02 00:25:17;;;;;;;;;;;16.00;99.90;;;;;;7376367;19;108220;-92
2022/11/02 00:27:44;;;;;;;;;;;15.90;99.90;;;;;;7377093;19;108574;-93
2022/11/02 00:30:11;;;;;;;;;;;15.80;99.90;;;;;;7381615;19;110179;-93
2022/11/02 00:32:38;;;;;;;;;;;15.80;99.90;;;;;;7374842;19;108062;-93
2022/11/02 00:35:05;;;;;;;;;;;15.70;99.90;;;;;;7373726;19;109509;-91
2022/11/02 00:37:32;;;;;;;;;;;15.70;99.90;;;;;;7375117;19;108140;-91
2022/11/02 00:39:59;;;;;;;;;;;15.60;99.90;;;;;;7372753;19;108177;-93
2022/11/02 00:42:27;;;;;;;;;;;15.60;99.90;;;;;;7373805;19;111567;-92
2022/11/02 00:44:54;;;;;;;;;;;15.60;99.90;;;;;;7376946;19;108181;-92
2022/11/02 00:47:20;;;;;;;;;;;15.50;99.90;;;;;;7375926;19;107963;-94
2022/11/02 00:49:47;;;;;;;;;;;15.50;99.90;;;;;;7376520;19;111638;-92
2022/11/02 00:52:14;;;;;;;;;;;15.40;99.90;;;;;;7383553;19;107949;-92
2022/11/02 00:54:41;;;;;;;;;;;15.40;99.90;;;;;;7370217;19;109069;-93
2022/11/02 00:57:08;;;;;;;;;;;15.30;99.90;;;;;;7347081;19;108394;-93
2022/11/02 00:59:35;;;;;;;;;;;15.30;99.90;;;;;;7348007;19;109500;-91
2022/11/02 01:02:02;;;;;;;;;;;15.30;99.90;;;;;;7349334;19;110106;-92
2022/11/02 01:04:29;;;;;;;;;;;15.20;99.90;;;;;;7350094;19;108887;-92
2022/11/02 01:06:56;;;;;;;;;;;15.20;99.90;;;;;;7347766;19;108355;-92
2022/11/02 01:09:23;;;;;;;;;;;15.20;99.90;;;;;;7347687;19;110607;-92
2022/11/02 01:11:51;;;;;;;;;;;15.20;99.90;;;;;;7355838;19;108832;-94
2022/11/02 01:14:18;;;;;;;;;;;15.20;99.90;;;;;;7346925;19;110134;-93
2022/11/02 01:16:45;;;;;;;;;;;15.10;99.90;;;;;;7350607;19;108859;-92
2022/11/02 01:19:13;;;;;;;;;;;15.10;99.90;;;;;;7347151;19;108272;-91
2022/11/02 01:21:40;;;;;;;;;;;15.10;99.90;;;;;;7349253;19;110556;-93
2022/11/02 01:24:07;;;;;;;;;;;15.10;99.90;;;;;;7352187;19;108503;-92
2022/11/02 01:26:34;;;;;;;;;;;15.00;99.90;;;;;;7347623;19;112347;-91
2022/11/02 01:29:01;;;;;;;;;;;15.10;99.90;;;;;;7346953;19;108848;-91
2022/11/02 01:31:28;;;;;;;;;;;15.10;99.90;;;;;;7348873;19;108676;-90
2022/11/02 01:33:55;;;;;;;;;;;15.00;99.90;;;;;;7353176;19;110459;-92
2022/11/02 01:36:22;;;;;;;;;;;15.00;99.90;;;;;;7346642;19;109411;-95
2022/11/02 01:38:49;;;;;;;;;;;15.00;99.90;;;;;;7350972;19;109177;-92
2022/11/02 01:41:17;;;;;;;;;;;15.00;99.90;;;;;;7349115;19;110096;-95
2022/11/02 01:43:45;;;;;;;;;;;14.90;99.90;;;;;;7347698;19;108410;-93
2022/11/02 01:46:12;;;;;;;;;;;14.90;99.90;;;;;;7349775;19;109191;-92
2022/11/02 01:48:44;;;;;;;;;;;14.90;99.90;;;;;;7346635;19;109687;-93
2022/11/02 01:51:13;;;;;;;;;;;14.90;99.90;;;;;;7350662;19;108110;-92
2022/11/02 01:53:43;;;;;;;;;;;14.90;99.90;;;;;;7344849;19;109655;-91
2022/11/02 01:56:11;;;;;;;;;;;14.80;99.90;;;;;;7352697;19;108795;-91
2022/11/02 01:58:38;;;;;;;;;;;14.90;99.90;;;;;;7348593;19;108769;-92
2022/11/02 02:01:05;;;;;;;;;;;14.80;99.90;;;;;;7347312;19;110815;-92
2022/11/02 02:03:34;;;;;;;;;;;14.90;99.90;;;;;;7345321;19;108371;-91
2022/11/02 02:06:07;;;;;;;;;;;14.90;99.90;;;;;;7345185;19;119529;-92
2022/11/02 02:08:37;;;;;;;;;;;14.80;99.90;;;;;;7346283;19;112545;-92
2022/11/02 02:11:25;;;;;;;;;;;14.90;99.90;;;;;;7348834;19;108351;-93
2022/11/02 02:13:57;;;;;;;;;;;14.80;99.90;;;;;;7346942;19;109824;-91
2022/11/02 02:16:39;;;;;;;;;;;14.90;99.90;;;;;;7346406;19;109042;-93
2022/11/02 02:19:33;;;;;;;;;;;14.90;99.90;;;;;;7351685;19;108785;-92
2022/11/02 02:22:19;;;;;;;;;;;14.90;99.90;;;;;;7345256;19;109606;-93
2022/11/02 02:24:46;;;;;;;;;;;14.80;99.90;;;;;;7348033;19;108781;-91
2022/11/02 02:27:16;;;;;;;;;;;14.80;99.90;;;;;;7347070;19;108371;-93
2022/11/02 02:29:46;;;;;;;;;;;14.80;99.90;;;;;;7345674;19;112779;-91
2022/11/02 02:32:13;;;;;;;;;;;14.80;99.90;;;;;;7345366;19;109501;-90
2022/11/02 02:34:43;;;;;;;;;;;14.80;99.90;;;;;;7346725;19;109233;-91
2022/11/02 02:37:15;;;;;;;;;;;14.80;99.90;;;;;;7346718;19;109364;-90
2022/11/02 02:39:56;;;;;;;;;;;14.80;99.90;;;;;;7351413;19;108718;-92
2022/11/02 02:42:35;;;;;;;;;;;14.80;99.90;;;;;;7357105;19;109134;-92
2022/11/02 02:45:10;;;;;;;;;;;14.80;99.90;;;;;;7355614;19;108801;-91
2022/11/02 02:47:41;;;;;;;;;;;14.80;99.90;;;;;;7354337;19;109035;-91
2022/11/02 02:50:19;;;;;;;;;;;14.80;99.90;;;;;;7354486;19;108476;-93
2022/11/02 02:52:48;;;;;;;;;;;14.80;99.90;;;;;;7356138;19;108416;-93
2022/11/02 02:55:17;;;;;;;;;;;14.80;99.90;;;;;;7352621;19;108505;-93
2022/11/02 02:57:44;;;;;;;;;;;14.80;99.90;;;;;;7352505;19;109238;-93
2022/11/02 03:00:15;;;;;;;;;;;14.80;99.90;;;;;;7352880;19;108223;-91
2022/11/02 03:02:43;;;;;;;;;;;14.80;99.90;;;;;;7349434;19;111792;-91
2022/11/02 03:05:21;;;;;;;;;;;14.80;99.90;;;;;;7359250;19;110426;-90
2022/11/02 03:07:48;;;;;;;;;;;14.80;99.90;;;;;;7351193;19;108823;-91
2022/11/02 03:10:15;;;;;;;;;;;14.80;99.90;;;;;;7351684;19;110584;-92
2022/11/02 03:12:51;;;;;;;;;;;14.80;99.90;;;;;;7351206;19;108198;-93
2022/11/02 03:15:20;;;;;;;;;;;14.70;99.90;;;;;;7353362;19;110677;-92
2022/11/02 03:17:56;;;;;;;;;;;14.70;99.90;;;;;;7351360;19;110362;-90
2022/11/02 03:20:23;;;;;;;;;;;14.70;99.90;;;;;;7352121;19;108704;-92
2022/11/02 03:22:50;;;;;;;;;;;14.70;99.90;;;;;;7350762;19;108922;-91
2022/11/02 03:25:21;;;;;;;;;;;14.80;99.90;;;;;;7352605;19;111494;-91
2022/11/02 03:28:03;;;;;;;;;;;14.80;99.90;;;;;;7352374;19;109221;-91
2022/11/02 03:30:35;;;;;;;;;;;14.70;99.90;;;;;;7350781;19;110511;-92
2022/11/02 03:33:13;;;;;;;;;;;14.70;99.90;;;;;;7352012;19;109102;-93
2022/11/02 03:35:46;;;;;;;;;;;14.60;99.90;;;;;;7349996;19;109720;-92
2022/11/02 03:38:16;;;;;;;;;;;14.60;99.90;;;;;;7346930;19;113627;-89
2022/11/02 03:40:45;;;;;;;;;;;14.60;99.90;;;;;;7347414;19;108428;-90
2022/11/02 03:43:13;;;;;;;;;;;14.60;99.90;;;;;;7348293;19;109577;-91
2022/11/02 03:45:43;;;;;;;;;;;14.60;99.90;;;;;;7347114;19;110687;-92
2022/11/02 03:48:11;;;;;;;;;;;14.60;99.90;;;;;;7351463;19;109871;-92
2022/11/02 03:50:41;;;;;;;;;;;14.50;99.90;;;;;;7342342;19;109338;-91
2022/11/02 03:53:28;;;;;;;;;;;14.50;99.90;;;;;;7350466;19;110174;-89
2022/11/02 03:55:59;;;;;;;;;;;14.50;99.90;;;;;;7349779;19;108218;-89
2022/11/02 03:58:26;;;;;;;;;;;14.50;99.90;;;;;;7346487;19;110720;-90
2022/11/02 04:00:55;;;;;;;;;;;14.50;99.90;;;;;;7347673;19;108441;-93
2022/11/02 04:03:23;;;;;;;;;;;14.50;99.90;;;;;;7345043;19;110052;-91
2022/11/02 04:05:50;;;;;;;;;;;14.50;99.90;;;;;;7344413;19;110675;-90
2022/11/02 04:08:24;;;;;;;;;;;14.50;99.90;;;;;;7345615;19;109733;-90
2022/11/02 04:16:22;;;;;;;;;;;14.40;99.90;;;;;;7346508;19;109286;-90
2022/11/02 04:21:39;;;;;;;;;;;14.30;99.90;;;;;;7346203;19;108657;-90
2022/11/02 04:26:52;;;;;;;;;;;14.20;99.90;;;;;;7347359;19;109948;-90
2022/11/02 04:29:19;;;;;;;;;;;14.20;99.90;;;;;;7348296;19;108592;-89
2022/11/02 04:31:46;;;;;;;;;;;14.20;99.90;;;;;;7347870;19;109256;-90
2022/11/02 04:34:13;;;;;;;;;;;14.10;99.90;;;;;;7349638;19;109129;-91
2022/11/02 04:36:40;;;;;;;;;;;14.10;99.90;;;;;;7344564;19;108106;-90
2022/11/02 04:39:07;;;;;;;;;;;14.10;99.90;;;;;;7344608;19;110510;-88
2022/11/02 04:41:43;;;;;;;;;;;14.10;99.90;;;;;;7345456;19;108931;-90
2022/11/02 04:44:18;;;;;;;;;;;14.10;99.90;;;;;;7347006;19;109574;-90
2022/11/02 04:46:50;;;;;;;;;;;14.10;99.90;;;;;;7345822;19;110048;-89
2022/11/02 04:49:17;;;;;;;;;;;14.00;99.90;;;;;;7345787;19;109084;-91
2022/11/02 04:51:44;;;;;;;;;;;14.00;99.90;;;;;;7345919;19;108645;-90
2022/11/02 04:54:15;;;;;;;;;;;14.00;99.90;;;;;;7346051;19;110846;-90
2022/11/02 04:56:42;;;;;;;;;;;14.00;99.90;;;;;;7350512;19;108476;-90
2022/11/02 04:59:09;;;;;;;;;;;14.00;99.90;;;;;;7343369;19;109209;-89
2022/11/02 05:01:36;;;;;;;;;;;14.00;99.90;;;;;;7343241;19;108551;-90
2022/11/02 05:04:04;;;;;;;;;;;13.90;99.90;;;;;;7344168;19;109271;-92
2022/11/02 05:06:30;;;;;;;;;;;13.90;99.90;;;;;;7346647;19;110510;-90
2022/11/02 05:08:57;;;;;;;;;;;13.90;99.90;;;;;;7344506;19;109125;-90
2022/11/02 05:11:24;;;;;;;;;;;13.90;99.90;;;;;;7344913;19;108745;-91
2022/11/02 05:13:51;;;;;;;;;;;13.90;99.90;;;;;;7343815;19;110295;-91
2022/11/02 05:16:18;;;;;;;;;;;13.90;99.90;;;;;;7344746;19;108292;-91
2022/11/02 05:18:45;;;;;;;;;;;13.90;99.90;;;;;;7350879;19;109947;-90
2022/11/02 05:21:12;;;;;;;;;;;13.90;99.90;;;;;;7347234;19;108627;-91
2022/11/02 05:23:39;;;;;;;;;;;13.80;99.90;;;;;;7343323;19;109445;-90
2022/11/02 05:26:09;;;;;;;;;;;13.70;99.90;;;;;;7344374;19;110537;-89
2022/11/02 05:28:35;;;;;;;;;;;13.80;99.90;;;;;;7344986;19;108604;-90
2022/11/02 05:31:03;;;;;;;;;;;13.80;99.90;;;;;;7346103;19;111154;-91
2022/11/02 05:33:30;;;;;;;;;;;13.70;99.90;;;;;;7343321;19;112981;-91
2022/11/02 05:35:58;;;;;;;;;;;13.70;99.90;;;;;;7345364;19;108503;-91
2022/11/02 05:38:25;;;;;;;;;;;13.70;99.90;;;;;;7347844;19;108271;-90
2022/11/02 05:40:53;;;;;;;;;;;13.60;99.90;;;;;;7345951;19;112455;-91
2022/11/02 05:43:20;;;;;;;;;;;13.60;99.90;;;;;;7342311;19;109182;-90
2022/11/02 05:45:54;;;;;;;;;;;13.60;99.90;;;;;;7343706;19;110378;-91
2022/11/02 05:48:22;;;;;;;;;;;13.60;99.90;;;;;;7345599;19;108329;-90
2022/11/02 05:50:53;;;;;;;;;;;13.60;99.90;;;;;;7344708;19;109414;-91
2022/11/02 05:53:20;;;;;;;;;;;13.60;99.90;;;;;;7342373;19;110571;-91
2022/11/02 05:55:47;;;;;;;;;;;13.50;99.90;;;;;;7348051;19;108663;-91
2022/11/02 05:58:14;;;;;;;;;;;13.50;99.90;;;;;;7342560;19;109535;-90
2022/11/02 06:00:41;;;;;;;;;;;13.50;99.90;;;;;;7349186;19;109220;-90
2022/11/02 06:03:08;;;;;;;;;;;13.40;99.90;;;;;;7344958;19;108309;-90
2022/11/02 06:05:34;;;;;;;;;;;13.40;99.90;;;;;;7343665;19;110379;-90
2022/11/02 06:08:02;;;;;;;;;;;13.40;99.90;;;;;;7346001;19;109050;-91
2022/11/02 06:10:29;;;;;;;;;;;13.40;99.90;;;;;;7344686;19;109441;-90
2022/11/02 06:12:57;;;;;;;;;;;13.30;99.90;;;;;;7342098;19;109269;-89
2022/11/02 06:15:24;;;;;;;;;;;13.30;99.90;;;;;;7343532;19;108907;-92
2022/11/02 06:17:51;;;;;;;;;;;13.30;99.90;;;;;;7343910;19;108558;-89
2022/11/02 06:20:18;;;;;;;;;;;13.30;99.90;;;;;;7342749;19;110637;-89
2022/11/02 06:22:45;;;;;;;;;;;13.30;99.90;;;;;;7348983;19;108138;-91
2022/11/02 06:25:13;;;;;;;;;;;13.20;99.90;;;;;;7342864;19;111361;-90
2022/11/02 06:27:40;;;;;;;;;;;13.30;99.90;;;;;;7345543;19;108582;-90
2022/11/02 06:30:11;;;;;;;;;;;13.20;99.90;;;;;;7342740;19;109673;-91
2022/11/02 06:32:38;;;;;;;;;;;13.20;99.90;;;;;;7343556;19;110498;-91
2022/11/02 06:35:06;;;;;;;;;;;13.20;99.90;;;;;;7344850;19;108344;-88
2022/11/02 06:37:33;;;;;;;;;;;13.20;99.90;;;;;;7342487;19;111852;-88
2022/11/02 06:40:00;;;;;;;;;;;13.10;99.90;;;;;;7343927;19;109581;-90
2022/11/02 06:42:27;;;;;;;;;;;13.10;99.90;;;;;;7340754;19;108599;-91
2022/11/02 06:45:01;;;;;;;;;;;13.10;99.90;;;;;;7345387;19;108535;-90
2022/11/02 06:47:28;;;;;;;;;;;13.10;99.90;;;;;;7342422;19;108646;-90
2022/11/02 06:49:56;;;;;;;;;;;13.10;99.90;;;;;;7341445;19;108811;-91
2022/11/02 06:52:22;;;;;;;;;;;13.20;99.90;;;;;;7338976;19;110899;-91
2022/11/02 06:54:49;;;;;;;;;;;13.20;99.90;;;;;;7339604;19;108809;-90
2022/11/02 06:57:16;;;;;;;;;;;13.10;99.90;;;;;;7341417;19;108915;-91
2022/11/02 06:59:43;;;;;;;;;;;13.10;99.90;;;;;;7340933;19;109985;-89
2022/11/02 07:02:15;;;;;;;;;;;13.10;99.90;;;;;;7342561;19;108793;-88
2022/11/02 07:04:42;;;;;;;;;;;13.10;99.90;;;;;;7339066;19;110491;-89
2022/11/02 07:07:09;;;;;;;;;;;13.10;99.90;;;;;;7347254;19;109542;-90
2022/11/02 07:09:37;;;;;;;;;;;13.10;99.90;;;;;;7341403;19;109316;-89
2022/11/02 07:12:04;;;;;;;;;;;13.10;99.90;;;;;;7340966;19;110388;-89
2022/11/02 07:14:31;;;;;;;;;;;13.10;99.90;;;;;;7344215;19;108289;-89
2022/11/02 07:16:57;;;;;;;;;;;13.20;99.90;;;;;;7343659;19;108989;-90
2022/11/02 07:19:25;;;;;;;;;;;13.10;99.90;;;;;;7344968;19;110815;-89
2022/11/02 07:21:51;;;;;;;;;;;13.20;99.90;;;;;;7346240;19;108261;-90
2022/11/02 07:24:18;;;;;;;;;;;13.20;99.90;;;;;;7344085;19;109579;-89
2022/11/02 07:26:49;;;;;;;;;;;13.30;99.90;;;;;;7349254;19;109450;-90
2022/11/02 07:29:16;;;;;;;;;;;13.30;99.90;;;;;;7352181;19;108478;-90
2022/11/02 07:31:43;;;;;;;;;;;13.30;99.90;;;;;;7349050;19;110308;-89
2022/11/02 07:34:11;;;;;;;;;;;13.30;99.90;;;;;;7350605;19;108313;-90
2022/11/02 07:36:42;;;;;;;;;;;13.40;99.90;;;;;;7347492;19;113326;-89
2022/11/02 07:39:09;;;;;;;;;;;13.30;99.90;;;;;;7347179;19;110741;-90
2022/11/02 07:41:36;;;;;;;;;;;13.30;99.90;;;;;;7348379;19;108322;-90
2022/11/02 07:44:03;;;;;;;;;;;13.40;99.90;;;;;;7347527;19;108618;-90
2022/11/02 07:46:30;;;;;;;;;;;13.40;99.90;;;;;;7347674;19;111004;-89
2022/11/02 07:48:57;;;;;;;;;;;13.40;99.90;;;;;;7354257;19;108507;-90
2022/11/02 07:51:25;;;;;;;;;;;13.40;99.90;;;;;;7352646;19;110625;-90
2022/11/02 07:53:52;;;;;;;;;;;13.50;99.90;;;;;;7377947;19;108080;-92
2022/11/02 07:56:19;;;;;;;;;;;13.50;99.90;;;;;;7375365;19;108331;-92
2022/11/02 07:58:46;;;;;;;;;;;13.50;99.90;;;;;;7374135;19;110648;-90
2022/11/02 08:01:13;;;;;;;;;;;13.50;99.90;;;;;;7376171;19;108750;-90
2022/11/02 08:03:40;;;;;;;;;;;13.50;99.90;;;;;;7374274;19;109537;-90
2022/11/02 08:06:07;;;;;;;;;;;13.60;99.90;;;;;;7373722;19;111256;-89
2022/11/02 08:08:34;;;;;;;;;;;13.60;99.90;;;;;;7373520;19;108054;-91
2022/11/02 08:11:03;;;;;;;;;;;13.60;99.90;;;;;;7378883;19;108285;-93
2022/11/02 08:13:30;;;;;;;;;;;13.60;99.90;;;;;;7373551;19;108196;-90
2022/11/02 08:15:58;;;;;;;;;;;13.70;99.90;;;;;;7376035;19;107761;-91
2022/11/02 08:18:26;;;;;;;;;;;13.70;99.90;;;;;;7377058;19;109132;-91
2022/11/02 08:20:54;;;;;;;;;;;13.70;99.90;;;;;;7378056;19;108054;-90
2022/11/02 08:23:22;;;;;;;;;;;13.70;99.90;;;;;;7374154;19;108203;-90
2022/11/02 08:25:50;;;;;;;;;;;13.80;99.90;;;;;;7376718;19;109171;-91
2022/11/02 08:28:18;;;;;;;;;;;13.80;99.90;;;;;;7375861;19;109970;-90
2022/11/02 08:30:45;;;;;;;;;;;13.90;99.90;;;;;;7374959;19;108113;-91
2022/11/02 08:33:14;;;;;;;;;;;13.90;99.90;;;;;;7379917;19;109574;-90
2022/11/02 08:35:42;;;;;;;;;;;13.90;99.90;;;;;;7363455;19;109940;-91
2022/11/02 08:38:09;;;;;;;;;;;14.00;99.90;;;;;;7355455;19;110350;-92
2022/11/02 08:40:36;;;;;;;;;;;14.10;99.90;;;;;;7358685;19;108647;-88
2022/11/02 08:43:08;;;;;;;;;;;14.10;99.90;;;;;;7353330;19;109258;-88
2022/11/02 08:45:37;;;;;;;;;;;14.10;99.90;;;;;;7355531;19;113497;-88
2022/11/02 08:48:24;;;;;;;;;;;14.10;99.90;;;;;;7350026;19;108419;-89
2022/11/02 08:50:51;;;;;;;;;;;14.20;99.90;;;;;;7359085;19;112049;-90
2022/11/02 08:53:18;;;;;;;;;;;14.20;99.90;;;;;;7358805;19;112814;-90
2022/11/02 08:55:45;;;;;;;;;;;14.20;99.90;;;;;;7364965;19;108659;-91
2022/11/02 08:58:12;;;;;;;;;;;14.30;99.90;;;;;;7355143;19;110435;-91
2022/11/02 09:00:39;;;;;;;;;;;14.30;99.90;;;;;;7355001;19;109129;-91
2022/11/02 09:03:13;;;;;;;;;;;14.40;99.90;;;;;;7354825;19;109002;-90
2022/11/02 09:05:43;;;;;;;;;;;14.50;99.90;;;;;;7355280;19;109390;-89
2022/11/02 09:08:12;;;;;;;;;;;14.50;99.90;;;;;;7359710;19;108139;-87
2022/11/02 09:10:39;;;;;;;;;;;14.60;99.90;;;;;;7355753;19;109292;-90
2022/11/02 09:13:07;;;;;;;;;;;14.60;99.90;;;;;;7355062;19;113043;-86
2022/11/02 09:15:35;;;;;;;;;;;14.60;99.90;;;;;;7361016;19;108328;-90
2022/11/02 09:18:03;;;;;;;;;;;14.70;99.90;;;;;;7360712;19;108352;-90
2022/11/02 09:20:30;;;;;;;;;;;14.80;99.90;;;;;;7356682;19;108538;-90
2022/11/02 09:22:57;;;;;;;;;;;14.80;99.90;;;;;;7350718;19;111409;-88
2022/11/02 09:25:24;;;;;;;;;;;14.90;99.90;;;;;;7352028;19;109389;-91
2022/11/02 09:27:55;;;;;;;;;;;14.90;99.90;;;;;;7359321;19;109184;-91
2022/11/02 09:30:23;;;;;;;;;;;15.00;99.90;;;;;;7356013;19;108978;-91
2022/11/02 09:32:58;;;;;;;;;;;15.00;99.90;;;;;;7358081;19;108397;-89
2022/11/02 09:35:26;;;;;;;;;;;15.00;99.90;;;;;;7370155;19;107840;-92
2022/11/02 09:37:52;;;;;;;;;;;15.00;99.90;;;;;;7371501;19;111165;-90
2022/11/02 09:40:20;;;;;;;;;;;15.00;99.90;;;;;;7365526;19;107966;-90
2022/11/02 09:42:57;;;;;;;;;;;15.10;99.90;;;;;;7364048;19;110125;-91
2022/11/02 09:45:25;;;;;;;;;;;15.10;99.90;;;;;;7366204;19;109499;-88
2022/11/02 09:48:02;;;;;;;;;;;15.10;99.90;;;;;;7361715;19;108213;-91
2022/11/02 09:50:48;;;;;;;;;;;15.10;99.90;;;;;;7364556;19;108132;-90
2022/11/02 09:53:25;;;;;;;;;;;15.20;99.90;;;;;;7362966;19;111480;-91
2022/11/02 09:55:53;;;;;;;;;;;15.30;99.90;;;;;;7358743;19;108132;-89
2022/11/02 09:58:23;;;;;;;;;;;15.30;99.90;;;;;;7368152;19;111611;-90
2022/11/02 10:00:53;;;;;;;;;;;15.30;99.90;;;;;;7374198;19;109391;-90
2022/11/02 10:03:46;;;;;;;;;;;15.40;99.90;;;;;;7358889;19;108513;-89
2022/11/02 10:06:18;;;;;;;;;;;15.50;99.90;;;;;;7363603;19;110267;-90
2022/11/02 10:08:48;;;;;;;;;;;15.60;99.90;;;;;;7365911;19;108580;-88
2022/11/02 10:11:34;;;;;;;;;;;15.60;99.90;;;;;;7366478;19;108434;-88
2022/11/02 10:14:09;;;;;;;;;;;15.70;99.90;;;;;;7370702;19;108995;-89
2022/11/02 10:16:38;;;;;;;;;;;15.70;99.90;;;;;;7371444;19;108347;-90
2022/11/02 10:19:11;;;;;;;;;;;15.80;99.90;;;;;;7370154;19;108266;-89
2022/11/02 10:21:40;;;;;;;;;;;15.90;99.90;;;;;;7362641;19;108466;-89
2022/11/02 10:24:24;;;;;;;;;;;15.90;99.90;;;;;;7368368;19;112181;-90
2022/11/02 10:26:54;;;;;;;;;;;16.00;99.90;;;;;;7364112;19;109728;-91
2022/11/02 10:29:43;;;;;;;;;;;16.10;99.90;;;;;;7369407;19;107913;-91
2022/11/02 10:32:11;;;;;;;;;;;16.10;99.90;;;;;;7363373;19;108753;-89
2022/11/02 10:34:38;;;;;;;;;;;16.20;99.90;;;;;;7364861;19;110350;-91
2022/11/02 10:37:21;;;;;;;;;;;16.20;99.90;;;;;;7362186;19;108049;-91
2022/11/02 10:39:57;;;;;;;;;;;16.30;99.90;;;;;;7362816;19;110637;-91
2022/11/02 10:42:33;;;;;;;;;;;16.40;99.90;;;;;;7367253;19;111159;-91
2022/11/02 10:45:06;;;;;;;;;;;16.40;99.90;;;;;;7366619;19;107781;-89
2022/11/02 10:47:40;;;;;;;;;;;16.50;99.90;;;;;;7371645;19;108241;-89
2022/11/02 10:50:18;;;;;;;;;;;16.60;99.90;;;;;;7369747;19;108216;-89
2022/11/02 10:52:45;;;;;;;;;;;16.60;99.90;;;;;;7370257;19;111940;-90
2022/11/02 10:55:18;;;;;;;;;;;16.70;99.90;;;;;;7346328;19;109163;-90
2022/11/02 10:57:45;;;;;;;;;;;16.80;99.90;;;;;;7348408;19;108100;-90
2022/11/02 11:00:26;;;;;;;;;;;16.80;99.90;;;;;;7351303;19;108435;-91
2022/11/02 11:03:05;;;;;;;;;;;16.90;99.90;;;;;;7353368;19;111697;-90
2022/11/02 11:05:34;;;;;;;;;;;17.00;99.90;;;;;;7353417;19;109629;-90
2022/11/02 11:08:01;;;;;;;;;;;17.00;99.90;;;;;;7351564;19;108556;-90
2022/11/02 11:10:30;;;;;;;;;;;17.00;99.90;;;;;;7353829;19;110307;-91
2022/11/02 11:12:57;;;;;;;;;;;17.00;99.90;;;;;;7353567;19;108664;-90
2022/11/02 11:15:27;;;;;;;;;;;17.00;99.90;;;;;;7349586;19;110232;-90
2022/11/02 11:18:17;;;;;;;;;;;16.90;99.90;;;;;;7350447;19;108567;-90
2022/11/02 11:21:05;;;;;;;;;;;16.90;99.90;;;;;;7353865;19;108465;-91
2022/11/02 11:23:32;;;;;;;;;;;16.80;99.90;;;;;;7351149;19;109217;-90
2022/11/02 11:26:08;;;;;;;;;;;16.80;99.90;;;;;;7350720;19;108361;-90
2022/11/02 11:28:50;;;;;;;;;;;16.90;99.90;;;;;;7355146;19;108448;-90
2022/11/02 11:31:18;;;;;;;;;;;17.00;99.90;;;;;;7352552;19;109466;-91
2022/11/02 11:33:51;;;;;;;;;;;17.20;99.90;;;;;;7356937;19;108358;-90
2022/11/02 11:36:21;;;;;;;;;;;17.30;99.90;;;;;;7352760;19;112621;-90
2022/11/02 11:38:49;;;;;;;;;;;17.50;99.90;;;;;;7350727;19;109072;-91
2022/11/02 11:41:17;;;;;;;;;;;17.50;99.90;;;;;;7352691;19;108397;-90
2022/11/02 11:43:44;;;;;;;;;;;17.60;99.90;;;;;;7351507;19;113653;-91
2022/11/02 11:46:12;;;;;;;;;;;17.70;99.90;;;;;;7350842;19;108369;-90
2022/11/02 11:48:47;;;;;;;;;;;17.90;99.90;;;;;;7348883;19;109699;-91
2022/11/02 11:51:20;;;;;;;;;;;17.90;99.90;;;;;;7350980;19;111918;-90
2022/11/02 11:54:09;;;;;;;;;;;18.00;99.90;;;;;;7355028;19;108422;-90
2022/11/02 11:56:36;;;;;;;;;;;18.00;99.90;;;;;;7348616;19;111305;-91
2022/11/02 11:59:03;;;;;;;;;;;18.00;99.90;;;;;;7348450;19;108270;-90
2022/11/02 12:01:37;;;;;;;;;;;18.10;99.90;;;;;;7347007;19;109415;-91
2022/11/02 12:04:04;;;;;;;;;;;18.20;99.90;;;;;;7350633;19;110058;-90
2022/11/02 12:06:46;;;;;;;;;;;18.30;99.90;;;;;;7350038;19;108315;-91
2022/11/02 12:09:30;;;;;;;;;;;18.20;99.90;;;;;;7348036;19;111974;-89
2022/11/02 12:12:06;;;;;;;;;;;18.10;99.90;;;;;;7349565;19;110446;-90
2022/11/02 12:14:33;;;;;;;;;;;18.00;99.90;;;;;;7347286;19;108300;-90
2022/11/02 12:17:03;;;;;;;;;;;18.00;99.90;;;;;;7357507;19;112299;-91
2022/11/02 12:19:34;;;;;;;;;;;18.10;99.90;;;;;;7349857;19;108666;-91
2022/11/02 12:22:01;;;;;;;;;;;18.20;99.90;;;;;;7346324;19;110330;-91
2022/11/02 12:24:38;;;;;;;;;;;18.30;99.90;;;;;;7346912;19;109378;-92
2022/11/02 12:27:23;;;;;;;;;;;18.30;99.90;;;;;;7342364;19;108424;-90
2022/11/02 12:29:50;;;;;;;;;;;18.30;99.90;;;;;;7344543;19;112895;-90
2022/11/02 12:32:36;;;;;;;;;;;18.40;99.90;;;;;;7344629;19;111478;-90
2022/11/02 12:35:08;;;;;;;;;;;18.30;99.90;;;;;;7344616;19;108515;-90
2022/11/02 12:37:55;;;;;;;;;;;18.40;99.90;;;;;;7346325;19;109051;-91
2022/11/02 12:40:25;;;;;;;;;;;18.40;99.90;;;;;;7347572;19;110697;-91
2022/11/02 12:43:10;;;;;;;;;;;18.40;99.90;;;;;;7342956;19;108591;-91
2022/11/02 12:45:47;;;;;;;;;;;18.30;99.90;;;;;;7345873;19;111887;-90
2022/11/02 12:48:20;;;;;;;;;;;18.30;99.90;;;;;;7345294;19;108374;-90
2022/11/02 12:51:00;;;;;;;;;;;18.30;99.90;;;;;;7343404;19;112580;-90
2022/11/02 12:54:03;;;;;;;;;;;18.40;99.90;;;;;;7338866;19;111281;-90
2022/11/02 12:56:31;;;;;;;;;;;18.40;99.90;;;;;;7340084;19;108201;-91
2022/11/02 12:58:58;;;;;;;;;;;18.30;99.90;;;;;;7341257;19;109284;-90
2022/11/02 13:01:37;;;;;;;;;;;18.30;99.90;;;;;;7336918;19;110262;-90
2022/11/02 13:04:10;;;;;;;;;;;18.40;99.90;;;;;;7343400;19;108412;-90
2022/11/02 13:06:40;;;;;;;;;;;18.40;99.90;;;;;;7337965;19;110779;-90
2022/11/02 13:09:13;;;;;;;;;;;18.40;99.90;;;;;;7339082;19;108505;-90
2022/11/02 13:11:42;;;;;;;;;;;18.50;99.90;;;;;;7341442;19;112944;-91
2022/11/02 13:14:13;;;;;;;;;;;18.60;99.90;;;;;;7340694;19;113338;-91
2022/11/02 13:16:49;;;;;;;;;;;18.70;99.90;;;;;;7339566;19;108951;-89
2022/11/02 13:19:20;;;;;;;;;;;18.80;99.90;;;;;;7338721;19;110150;-90
2022/11/02 13:21:53;;;;;;;;;;;18.70;99.90;;;;;;7338247;19;108853;-90
2022/11/02 13:24:26;;;;;;;;;;;18.70;99.90;;;;;;7338355;19;109152;-90
2022/11/02 13:26:59;;;;;;;;;;;18.60;99.90;;;;;;7342773;19;109054;-90
2022/11/02 13:29:45;;;;;;;;;;;18.70;99.90;;;;;;7338279;19;109046;-91
2022/11/02 13:32:26;;;;;;;;;;;18.80;99.90;;;;;;7340043;19;110469;-91
2022/11/02 13:35:02;;;;;;;;;;;18.90;99.90;;;;;;7340084;19;113368;-90
2022/11/02 13:37:33;;;;;;;;;;;19.00;99.90;;;;;;7341304;19;108657;-91
2022/11/02 13:40:03;;;;;;;;;;;19.00;99.90;;;;;;7342672;19;111890;-92
2022/11/02 13:42:49;;;;;;;;;;;19.00;99.90;;;;;;7340682;19;110329;-92
2022/11/02 13:45:25;;;;;;;;;;;19.00;99.90;;;;;;7343046;19;109112;-91
2022/11/02 13:47:55;;;;;;;;;;;18.90;99.90;;;;;;7342847;19;110581;-91
2022/11/02 13:50:23;;;;;;;;;;;18.90;99.90;;;;;;7346670;19;111517;-91
2022/11/02 13:52:58;;;;;;;;;;;18.80;99.90;;;;;;7346515;19;110544;-94
2022/11/02 13:55:33;;;;;;;;;;;18.80;99.90;;;;;;7341145;19;111674;-91
2022/11/02 13:57:59;;;;;;;;;;;18.70;99.90;;;;;;7349060;19;108980;-91
2022/11/02 14:00:34;;;;;;;;;;;18.60;99.90;;;;;;7345958;19;110464;-92
2022/11/02 14:03:10;;;;;;;;;;;18.60;99.90;;;;;;7343218;19;110682;-93
2022/11/02 14:05:46;;;;;;;;;;;18.60;99.90;;;;;;7346388;19;108502;-92
2022/11/02 14:08:20;;;;;;;;;;;18.60;99.90;;;;;;7347757;19;109055;-92
2022/11/02 14:11:01;;;;;;;;;;;18.60;99.90;;;;;;7352711;19;112233;-92
2022/11/02 14:13:48;;;;;;;;;;;18.60;99.90;;;;;;7345867;19;112229;-93
2022/11/02 14:16:33;;;;;;;;;;;18.70;99.90;;;;;;7345145;19;111558;-92
2022/11/02 14:19:19;;;;;;;;;;;18.70;99.90;;;;;;7347605;19;108452;-91
2022/11/02 14:21:49;;;;;;;;;;;18.60;99.90;;;;;;7345645;19;108215;-90
2022/11/02 14:24:35;;;;;;;;;;;18.60;99.90;;;;;;7346088;19;112708;-92
2022/11/02 14:27:03;;;;;;;;;;;18.60;99.90;;;;;;7342533;19;108337;-93
2022/11/02 14:29:46;;;;;;;;;;;18.60;99.90;;;;;;7341945;19;109165;-92
2022/11/02 14:32:15;;;;;;;;;;;18.60;99.90;;;;;;7344049;19;112926;-92
2022/11/02 14:34:42;;;;;;;;;;;18.60;99.90;;;;;;7349316;19;108463;-92